Hauptseite
METAR-TAF:

METAR-TAF

Flughäfen :

Flugplatz Hamburg-Finkenwerder

Finkenwerder, Deutschland

Breite: 53-32N, Länge: 009-50E, Höhe: 5 m

Beobachtung

Neuester Wetterbericht von vor 35 Minuten, um 03:50 UTC
Windstille
Temperatur -8°C
Luftfeuchtigkeit 100%
Luftdruck 1022 hPa
Sichtweite: 5000 m

METAR: EDHI 210350Z AUTO 00000KT 5000 // FEW100/// M08/M08 Q1022

Zeit: 05:25 (04:25 UTC)


TAF: fehlend

Wetterbeobachtungen und Prognosen von mehr als 4000 Flughäfen (METAR und TAF Bericht).

Die verfügbaren Stationen werden durch gelbe und rote Markierungen auf der Karte dargestellt.

Führen Sie die Maus auf sie, um den Namen der Station zu sehen.

Darauf klicken, um die Beobachtung von Wetterbeobachtungen und Prognosen zu sehen.

Um die Karte zu ändern : klicken Sie auf den grünen Tasten mit einem schwarzen Kreuz Zum Vergrößern, auf den grünen Button mit einem Gedankenstrich zu verkleinern, oder auf die grünen Pfeile für benachbarte Karten.


METAR-TAF: